« ある日1 成田国際空港 2014/9/10 wed | トップページ | ある日3 成田国際空港 2014/9/10 wed »

2014/10/06

ある日2 成田国際空港 2014/9/10 wed

その1からつづき

20140910_rjaa_36vna602

HVN302 VVTS-RJAA VN-A602 A321-231

RJAA 100430Z 15007KT 120V180 9999 FEW020 BKN040 BKN/// 25/18 Q1010 NOSIG

20140910_rjaa_37n176dn

DAL285 VHHH-RJAA N176DN B767-332ER

20140910_rjaa_38hl7790

AAR103 RJAA-RKSI HL7790 A321-231

20140910_rjaa_39ja8356

ANA8506 ZSQD-RJAA JA8356 B767-381ERBCF

20140910_rjaa_40b2445

CCA929 ZSPD-RJAA B-2445 B747-4J6

20140910_rjaa_41b2443

CCA925 ZBAA-RJAA B-2443 B747-4J6

20140910_rjaa_42rpc9906

PAL427 RJAA-RPLL RP-C9906 A321-231

20140910_rjaa_43n663us_2

DAL579 PHNL-RJAA N663US B747-451

20140910_rjaa_44n860da

DAL166 WSSS-RJAA N860DA B777-232ER

20140910_rjaa_45n27246

UAL78 RKSI-RJAA N27246 B737-824

20140910_rjaa_46n197ua

UAL837 KSFO-RJAA N197UA B747-422

20140910_rjaa_47b6896

CSZ630 RJAA-ZYTL B-6896 A320-232

20140910_rjaa_48b22311

TNA605 RJAA-RCTP B-22311 A320-232

20140910_rjaa_49b18606

CAL103 RJAA-RKCH B-18606 B737-809

RJAA 100500Z 14008KT 100V170 9999 FEW020 SCT030 BKN/// 24/19 Q1010 NOSIG RMK 1CU020 3CU030 A2982

20140910_rjaa_50n850fd

FDX5192 xxxx-RJAA N850FD B777-FS2

20140910_rjaa_51ja808a

ANA922 ZSPD-RJAA JA808A B787-8

20140910_rjaa_52phbva

KLM864 RJAA-EHAM PH-BVA B777-306ER

20140910_rjaa_53n222ua

UAL804 WSSS-RJAA N222UA B777-222ER

20140910_rjaa_54hl7761

ABL111 RJAA-RKPK HL7761 A321-131

20140910_rjaa_55cgbzr

ACA003 CYVR-RJAA C-GBZR B767-38EER

20140910_rjaa_56hl7783

KAL704 RJAA-RKSI HL7783 B777-3B5ER

20140910_rjaa_57ja733a

ANA205 RJAA-LFPG JA733A B777-381ER

20140910_rjaa_58b5936

CES524 RJAA-ZSPD B-5936 A330-243

20140910_rjaa_59n27015

UAL7 KIAH-RJAA N27015 B777-224ER

20140910_rjaa_60ja73nm

SKY825 RJAA-RJOH JA73NM B737-81D

20140910_rjaa_61ja607a

ANA959 RJAA-ZSPD JA607A B767-381ER

20140910_rjaa_62ja615j

JAL877 RJAA-ZSPD JA615J B767-346ER

20140910_rjaa_63b16309

20140910_rjaa_64b16309

EVA197 RJAA-RCTP B-16309 A330-203

20140910_rjaa_65ja807p

APJ116 RJAA-RJBB JA807P A320-214

20140910_rjaa_66hl7710

KAL002 PHNL-RJAA HL7710 A330-323X

20140910_rjaa_67n27903

UAL32 KLAX-RJAA N27903 B787-8

20140910_rjaa_68n216ua

UAL803 KIAD-RJAA N216UA B777-222ER

20140910_rjaa_69n25201

UAL196 PGUM-RJAA N25201 B737-824

20140910_rjaa_70rpc9907

PAL433 RJAA-RPVM RP-C9907 A321-231

その3へつづく・・・

|

« ある日1 成田国際空港 2014/9/10 wed | トップページ | ある日3 成田国際空港 2014/9/10 wed »

成田国際空港」カテゴリの記事

コメント

コメントを書く



(ウェブ上には掲載しません)


コメントは記事投稿者が公開するまで表示されません。



トラックバック


この記事へのトラックバック一覧です: ある日2 成田国際空港 2014/9/10 wed:

« ある日1 成田国際空港 2014/9/10 wed | トップページ | ある日3 成田国際空港 2014/9/10 wed »